Pike Station, Illinois
Current Conditions -  °F | °C
As of 2:15 AM on Tuesday 21 Oct 2014 (Local Time) from KPPQ Reporting Station
Clear Clear  
Wind Chill: 47°   Ceiling: Unl
Heat Index: 49°   Visibility: 10mi
Dew Point: 43°   Wind: 5mph
Humidity: 80%   Direction: 290°WNW
Pressure: 30.05"   Gusts: NA
Location:  39.5365°N, 91.0118°W
Report Text: KPPQ 210715Z AUTO 29004KT 10SM CLR 09/06 A3005 RMK AO2 T00940061
Loading
Personal Weather Stations






























Interactive Weather Map New forecast layout! Learn more

10-Day Weather Forecast

Advertisements
Track Severe Weather on mobile